createdAt,value
2022-12-25T00:01:24.506Z,21.90
2022-12-25T00:06:26.448Z,20.90
2022-12-25T00:11:28.373Z,20.30
2022-12-25T00:16:31.232Z,21.70
2022-12-25T00:21:33.376Z,19.10
2022-12-25T00:26:35.358Z,21.40
2022-12-25T00:31:37.391Z,19.70
2022-12-25T00:36:41.902Z,19.80
2022-12-25T00:42:03.266Z,19.80
2022-12-25T00:47:05.339Z,21.10
2022-12-25T00:52:07.886Z,23.40
2022-12-25T00:57:09.909Z,32.20
2022-12-25T01:06:13.017Z,30.30
2022-12-25T01:11:15.007Z,26.20
2022-12-25T01:16:17.812Z,26.50
2022-12-25T01:21:21.342Z,26.10
2022-12-25T01:26:25.997Z,25.90
2022-12-25T01:31:27.904Z,25.60
2022-12-25T01:36:30.052Z,26.20
2022-12-25T01:41:32.195Z,22.80
2022-12-25T01:46:35.402Z,26.00
2022-12-25T01:51:48.480Z,24.00
2022-12-25T01:56:53.536Z,26.10
2022-12-25T02:01:57.254Z,25.90
2022-12-25T02:06:59.447Z,25.30
2022-12-25T02:12:01.671Z,24.80
2022-12-25T02:17:29.928Z,27.70
2022-12-25T02:23:01.497Z,30.00
2022-12-25T02:34:02.904Z,36.10
2022-12-25T02:39:31.387Z,39.60
2022-12-25T02:44:55.101Z,38.50
2022-12-25T02:50:18.360Z,41.60
2022-12-25T02:55:44.881Z,43.50
2022-12-25T03:01:11.625Z,42.90
2022-12-25T03:06:34.440Z,40.60
2022-12-25T03:11:36.440Z,39.80
2022-12-25T03:16:50.639Z,36.10
2022-12-25T03:22:13.259Z,36.80
2022-12-25T03:27:15.658Z,34.50
2022-12-25T03:32:34.044Z,35.30
2022-12-25T03:38:09.744Z,34.90
2022-12-25T03:43:48.668Z,35.00
2022-12-25T03:49:21.811Z,38.60
2022-12-25T03:54:46.826Z,36.30
2022-12-25T04:00:07.443Z,32.90
2022-12-25T04:05:29.730Z,35.50
2022-12-25T04:10:50.701Z,36.40
2022-12-25T04:16:12.422Z,41.30
2022-12-25T04:21:33.481Z,37.60
2022-12-25T04:26:54.158Z,37.90
2022-12-25T04:32:14.707Z,37.50
2022-12-25T04:37:16.730Z,35.40
2022-12-25T04:42:18.834Z,34.50
2022-12-25T04:47:20.791Z,34.00
2022-12-25T04:52:22.768Z,34.00
2022-12-25T04:57:24.719Z,30.40
2022-12-25T05:02:26.820Z,29.20
2022-12-25T05:07:28.991Z,29.50
2022-12-25T05:12:30.996Z,29.80
2022-12-25T05:17:32.953Z,31.20
2022-12-25T05:22:34.984Z,30.10
2022-12-25T05:27:36.963Z,30.10
2022-12-25T05:32:39.082Z,27.10
2022-12-25T05:37:41.140Z,26.00
2022-12-25T05:42:43.204Z,26.70
2022-12-25T05:47:49.061Z,29.30
2022-12-25T05:52:51.053Z,29.40
2022-12-25T05:57:53.000Z,30.60
2022-12-25T06:02:55.070Z,31.50
2022-12-25T06:07:57.264Z,31.70
2022-12-25T06:12:59.443Z,34.80
2022-12-25T06:18:01.842Z,34.70
2022-12-25T06:23:03.928Z,35.80
2022-12-25T06:28:06.830Z,39.60
2022-12-25T06:33:08.801Z,43.30
2022-12-25T06:38:10.801Z,47.30
2022-12-25T06:43:12.837Z,43.00
2022-12-25T06:48:14.759Z,42.10
2022-12-25T06:53:16.834Z,44.30
2022-12-25T06:58:18.737Z,42.50
2022-12-25T07:03:22.159Z,43.70
2022-12-25T07:08:24.125Z,44.40
2022-12-25T07:13:26.346Z,41.70
2022-12-25T07:18:29.529Z,45.00
2022-12-25T07:23:31.540Z,41.40
2022-12-25T07:28:34.045Z,43.50
2022-12-25T07:33:36.508Z,42.40
2022-12-25T07:38:38.496Z,45.00
2022-12-25T07:43:40.777Z,38.10
2022-12-25T07:48:42.873Z,41.20
2022-12-25T07:53:45.042Z,41.20
2022-12-25T07:58:47.248Z,40.80
2022-12-25T08:03:51.487Z,44.80
2022-12-25T08:08:53.435Z,45.50
2022-12-25T08:13:56.483Z,46.60
2022-12-25T08:18:58.355Z,46.80
2022-12-25T08:24:00.474Z,47.60
2022-12-25T08:29:02.539Z,46.80
2022-12-25T08:34:04.942Z,48.00
2022-12-25T08:39:07.526Z,49.90
2022-12-25T08:44:12.021Z,46.90
2022-12-25T08:49:13.796Z,44.00
2022-12-25T08:54:15.830Z,38.00
2022-12-25T08:59:17.755Z,37.50
2022-12-25T09:04:19.661Z,31.50
2022-12-25T09:09:26.416Z,37.10
2022-12-25T09:14:28.563Z,34.10
2022-12-25T09:19:31.030Z,36.30
2022-12-25T09:24:33.033Z,35.30
2022-12-25T09:29:35.004Z,38.50
2022-12-25T09:34:36.952Z,37.40
2022-12-25T09:39:43.974Z,38.60
2022-12-25T09:45:15.259Z,38.40
2022-12-25T09:50:23.740Z,39.30
2022-12-25T09:55:29.347Z,39.10
2022-12-25T10:00:38.199Z,35.30
2022-12-25T10:05:59.080Z,32.60
2022-12-25T10:11:46.752Z,32.60
2022-12-25T10:16:48.721Z,33.20
2022-12-25T10:21:58.779Z,27.10
2022-12-25T10:27:05.438Z,29.50
2022-12-25T10:32:10.311Z,27.50
2022-12-25T10:37:12.684Z,24.80
2022-12-25T10:42:34.585Z,20.30
2022-12-25T10:47:42.776Z,18.90
2022-12-25T10:52:52.003Z,19.20
2022-12-25T10:57:54.278Z,17.20
2022-12-25T11:02:57.032Z,18.80
2022-12-25T11:08:01.731Z,18.30
2022-12-25T11:13:08.057Z,19.30
2022-12-25T11:18:27.522Z,17.00
2022-12-25T11:23:32.593Z,18.50
2022-12-25T11:28:37.691Z,20.30
2022-12-25T11:33:53.888Z,18.30
2022-12-25T11:38:59.515Z,15.40
2022-12-25T11:44:10.869Z,13.80
2022-12-25T11:49:18.138Z,12.80
2022-12-25T11:54:26.567Z,15.10
2022-12-25T11:59:38.724Z,13.70
2022-12-25T12:04:44.745Z,11.80
2022-12-25T12:10:02.140Z,12.80
2022-12-25T12:15:14.123Z,10.10
2022-12-25T12:20:34.537Z,12.00
2022-12-25T12:25:40.995Z,9.90
2022-12-25T12:30:42.963Z,10.70
2022-12-25T12:35:45.394Z,12.00
2022-12-25T12:40:56.032Z,12.50
2022-12-25T12:46:07.142Z,14.20
2022-12-25T12:51:26.311Z,13.80
2022-12-25T12:56:28.217Z,12.20
2022-12-25T13:01:39.286Z,10.70
2022-12-25T13:06:51.837Z,12.50
2022-12-25T13:11:55.062Z,12.90
2022-12-25T13:16:56.999Z,12.40
2022-12-25T13:22:01.758Z,14.30
2022-12-25T13:27:23.331Z,15.70
2022-12-25T13:37:32.039Z,14.80
2022-12-25T13:42:37.682Z,16.50
2022-12-25T13:47:48.676Z,16.60
2022-12-25T13:52:56.246Z,17.30
2022-12-25T13:58:04.523Z,15.80
2022-12-25T14:03:07.947Z,16.40
2022-12-25T14:08:19.317Z,15.60
2022-12-25T14:13:26.944Z,14.30
2022-12-25T14:18:30.894Z,15.00
2022-12-25T14:23:45.960Z,14.90
2022-12-25T14:28:50.749Z,15.40
2022-12-25T14:33:54.178Z,14.80
2022-12-25T14:39:02.001Z,17.50
2022-12-25T14:44:25.002Z,21.50
2022-12-25T14:49:32.373Z,20.30
2022-12-25T14:54:34.321Z,19.40
2022-12-25T14:59:36.157Z,20.10
2022-12-25T15:04:37.957Z,21.80
2022-12-25T15:09:40.673Z,22.60
2022-12-25T15:14:42.480Z,19.90
2022-12-25T15:19:44.480Z,26.20
2022-12-25T15:24:46.708Z,39.20
2022-12-25T15:40:17.610Z,32.00
2022-12-25T15:45:28.131Z,27.60
2022-12-25T15:50:30.322Z,27.30
2022-12-25T15:55:32.337Z,33.40
2022-12-25T16:00:34.280Z,42.50
2022-12-25T16:05:36.248Z,33.50
2022-12-25T16:10:39.141Z,38.50
2022-12-25T16:15:42.596Z,42.30
2022-12-25T16:20:44.609Z,39.10
2022-12-25T16:25:46.965Z,31.10
2022-12-25T16:30:49.906Z,26.10
2022-12-25T16:35:52.705Z,28.40
2022-12-25T16:40:57.398Z,63.00
2022-12-25T16:45:59.641Z,58.40
2022-12-25T16:51:08.553Z,49.80
2022-12-25T16:56:14.834Z,47.70
2022-12-25T17:01:19.500Z,63.30
2022-12-25T17:06:25.910Z,83.10
2022-12-25T17:11:30.204Z,100.30
2022-12-25T17:16:36.865Z,125.20
2022-12-25T17:21:38.868Z,119.30
2022-12-25T17:26:41.702Z,118.50
2022-12-25T17:31:44.952Z,109.40
2022-12-25T17:36:47.880Z,93.90
2022-12-25T17:41:50.953Z,86.60
2022-12-25T17:46:53.042Z,92.30
2022-12-25T17:51:55.144Z,77.80
2022-12-25T17:56:57.363Z,107.30
2022-12-25T18:01:59.408Z,93.40
2022-12-25T18:07:03.387Z,99.70
2022-12-25T18:12:06.035Z,83.70
2022-12-25T18:17:08.060Z,100.10
2022-12-25T18:22:10.031Z,116.70
2022-12-25T18:27:12.086Z,92.80
2022-12-25T18:32:14.219Z,95.30
2022-12-25T18:37:16.251Z,104.40
2022-12-25T18:42:36.672Z,109.80
2022-12-25T18:47:39.460Z,99.00
2022-12-25T18:52:48.165Z,102.60
2022-12-25T18:57:53.538Z,89.30
2022-12-25T19:02:58.497Z,92.50
2022-12-25T19:08:00.589Z,101.10
2022-12-25T19:13:02.988Z,126.40
2022-12-25T19:18:05.281Z,99.50
2022-12-25T19:23:08.734Z,112.70
2022-12-25T19:28:11.619Z,109.00
2022-12-25T19:33:17.650Z,104.80
2022-12-25T19:38:20.567Z,115.10
2022-12-25T19:43:22.614Z,129.60
2022-12-25T19:48:24.982Z,149.50
2022-12-25T19:53:28.925Z,128.00
2022-12-25T19:58:30.906Z,113.90
2022-12-25T20:03:38.827Z,119.70
2022-12-25T20:08:51.693Z,158.40
2022-12-25T20:13:54.145Z,165.60
2022-12-25T20:18:59.051Z,206.80
2022-12-25T20:24:01.036Z,112.20
2022-12-25T20:29:04.244Z,101.20
2022-12-25T20:34:09.566Z,119.10
2022-12-25T20:39:12.972Z,107.20
2022-12-25T20:44:15.122Z,111.70
2022-12-25T20:49:18.738Z,98.20
2022-12-25T20:54:20.800Z,100.00
2022-12-25T20:59:22.849Z,92.10
2022-12-25T21:04:25.511Z,94.00
2022-12-25T21:09:27.274Z,98.40
2022-12-25T21:14:29.645Z,94.10
2022-12-25T21:19:31.659Z,94.80
2022-12-25T21:24:33.472Z,107.10
2022-12-25T21:29:35.450Z,107.10
2022-12-25T21:34:37.767Z,109.20
2022-12-25T21:39:39.782Z,105.20
2022-12-25T21:44:42.143Z,115.60
2022-12-25T21:50:03.049Z,110.80
2022-12-25T21:55:06.112Z,112.60
2022-12-25T22:00:09.132Z,112.70
2022-12-25T22:05:31.084Z,114.90
2022-12-25T22:10:36.443Z,132.80
2022-12-25T22:15:57.105Z,121.10
2022-12-25T22:20:59.695Z,143.30
2022-12-25T22:26:05.062Z,144.40
2022-12-25T22:31:09.099Z,147.10
2022-12-25T22:36:13.456Z,148.70
2022-12-25T22:41:15.438Z,153.80
2022-12-25T22:46:17.409Z,151.10
2022-12-25T22:51:19.442Z,146.90
2022-12-25T22:56:21.495Z,144.40
2022-12-25T23:01:23.364Z,150.80
2022-12-25T23:06:25.213Z,145.60
2022-12-25T23:11:27.679Z,135.60
2022-12-25T23:16:29.993Z,136.10
2022-12-25T23:21:50.958Z,130.20
2022-12-25T23:26:52.894Z,133.00
2022-12-25T23:36:15.406Z,186.80
2022-12-25T23:41:17.377Z,188.40
2022-12-25T23:46:19.693Z,198.20
2022-12-25T23:51:21.871Z,198.30
2022-12-25T23:56:23.890Z,207.30
